Time;durP1;ratioP1;P1;durP2;ratioP2;P2;SDS_P1;SDS_P2;PMS_P1;PMS_P2;Temp;Humidity;BMP_temperature;BMP_pressure;BME280_temperature;BME280_humidity;BME280_pressure;Samples;Min_cycle;Max_cycle;Signal;HPM_P1;HPM_P2
2022/03/05 00:00:24;;;;;;;1.75;0.90;;;8.30;66.70;;;;;;5029106;28;20021;-77
2022/03/05 00:02:50;;;;;;;1.52;0.93;;;8.20;66.50;;;;;;5046157;28;20385;-77
2022/03/05 00:05:16;;;;;;;1.27;0.85;;;8.20;66.50;;;;;;5046780;28;20021;-77
2022/03/05 00:07:41;;;;;;;1.38;0.90;;;8.10;66.40;;;;;;5028798;28;20029;-77
2022/03/05 00:10:09;;;;;;;1.83;0.80;;;8.10;66.40;;;;;;5046509;28;20112;-78
2022/03/05 00:12:35;;;;;;;0.93;0.80;;;8.00;66.30;;;;;;5046692;28;20484;-77
2022/03/05 00:15:02;;;;;;;2.15;0.90;;;8.00;66.40;;;;;;5028478;28;20036;-77
2022/03/05 00:17:27;;;;;;;1.42;0.90;;;8.00;66.40;;;;;;5049704;28;20116;-77
2022/03/05 00:19:54;;;;;;;3.30;1.02;;;8.00;66.40;;;;;;5050023;28;20475;-78
2022/03/05 00:22:20;;;;;;;1.08;0.80;;;8.00;66.40;;;;;;5032290;28;20495;-78
2022/03/05 00:24:46;;;;;;;1.30;0.80;;;7.90;66.30;;;;;;5050246;28;20033;-77
2022/03/05 00:27:12;;;;;;;2.83;1.33;;;7.90;66.30;;;;;;5049930;28;20407;-78
2022/03/05 00:29:38;;;;;;;3.00;0.98;;;7.90;66.30;;;;;;5049762;28;20021;-78
2022/03/05 00:32:04;;;;;;;2.22;0.90;;;7.90;66.30;;;;;;5032184;28;20580;-77
2022/03/05 00:34:30;;;;;;;2.58;0.73;;;7.80;66.20;;;;;;5032284;28;20043;-76
2022/03/05 00:36:56;;;;;;;1.27;0.82;;;7.80;66.20;;;;;;5032111;28;20159;-76
2022/03/05 00:39:22;;;;;;;3.70;1.00;;;7.80;66.20;;;;;;5049447;28;20551;-76
2022/03/05 00:41:48;;;;;;;1.80;0.70;;;7.80;66.20;;;;;;5050067;28;20032;-76
2022/03/05 00:44:14;;;;;;;1.60;0.80;;;7.70;66.00;;;;;;5049706;28;20033;-76
2022/03/05 00:46:41;;;;;;;0.98;0.80;;;7.70;66.10;;;;;;5049074;28;20123;-76
2022/03/05 00:49:07;;;;;;;2.60;0.93;;;7.60;65.90;;;;;;5049000;28;20049;-77
2022/03/05 00:51:34;;;;;;;1.33;0.80;;;7.60;66.00;;;;;;5031574;28;20041;-77
2022/03/05 00:54:00;;;;;;;0.82;0.82;;;7.60;66.00;;;;;;5031772;28;20377;-77
2022/03/05 00:56:26;;;;;;;1.70;1.15;;;7.60;66.10;;;;;;5030597;28;20013;-76
2022/03/05 00:58:53;;;;;;;2.28;0.95;;;7.50;65.90;;;;;;5048250;28;20045;-77
2022/03/05 01:01:19;;;;;;;1.50;0.80;;;7.50;66.00;;;;;;5048924;28;20033;-77
2022/03/05 01:03:45;;;;;;;3.05;0.90;;;7.50;66.00;;;;;;5048126;28;20025;-77
2022/03/05 01:06:11;;;;;;;1.27;0.80;;;7.50;66.00;;;;;;5049542;28;20079;-78
2022/03/05 01:08:37;;;;;;;1.50;0.77;;;7.40;65.80;;;;;;5049311;28;20457;-77
2022/03/05 01:11:03;;;;;;;1.40;1.00;;;7.40;65.80;;;;;;5049166;28;20064;-77
2022/03/05 01:13:29;;;;;;;2.13;1.00;;;7.40;65.90;;;;;;5049271;28;20080;-76
2022/03/05 01:15:55;;;;;;;2.15;1.02;;;7.40;65.90;;;;;;5048898;28;20039;-77
2022/03/05 01:18:21;;;;;;;1.50;1.10;;;7.40;65.90;;;;;;5047695;28;20033;-77
2022/03/05 01:20:47;;;;;;;2.20;1.00;;;7.40;65.90;;;;;;5030604;28;20036;-79
2022/03/05 01:23:13;;;;;;;1.05;0.80;;;7.40;65.90;;;;;;5049598;28;20031;-77
2022/03/05 01:25:39;;;;;;;2.63;1.10;;;7.40;65.90;;;;;;5049025;28;20117;-77
2022/03/05 01:28:05;;;;;;;2.40;0.95;;;7.40;65.90;;;;;;5030566;28;20051;-78
2022/03/05 01:30:31;;;;;;;1.95;1.45;;;7.40;65.90;;;;;;5015062;28;20021;-76
2022/03/05 01:32:57;;;;;;;3.40;1.17;;;7.40;65.90;;;;;;5030661;28;20131;-76
2022/03/05 01:35:23;;;;;;;3.78;1.17;;;7.40;65.90;;;;;;5030678;28;20112;-79
2022/03/05 01:37:49;;;;;;;1.38;0.73;;;7.40;65.80;;;;;;5048341;28;20139;-79
2022/03/05 01:40:15;;;;;;;2.53;0.93;;;7.30;65.60;;;;;;5030156;28;20025;-78
2022/03/05 01:42:41;;;;;;;1.48;0.68;;;7.30;65.70;;;;;;5048086;28;20067;-80
2022/03/05 01:45:11;;;;;;;1.67;1.13;;;7.30;65.70;;;;;;5048035;28;20057;-77
2022/03/05 01:47:38;;;;;;;2.17;1.00;;;7.30;65.70;;;;;;5048158;28;20037;-77
2022/03/05 01:50:06;;;;;;;1.08;0.80;;;7.30;65.70;;;;;;5048197;28;20058;-78
2022/03/05 01:52:32;;;;;;;3.33;1.08;;;7.20;65.60;;;;;;5048657;28;20037;-75
2022/03/05 01:54:58;;;;;;;2.70;1.02;;;7.20;65.60;;;;;;5048191;28;20033;-79
2022/03/05 01:57:24;;;;;;;2.97;0.90;;;7.20;65.60;;;;;;5048124;28;20120;-78
2022/03/05 01:59:50;;;;;;;3.40;0.80;;;7.20;65.60;;;;;;5047852;28;20128;-79
2022/03/05 02:02:17;;;;;;;2.67;0.90;;;7.20;65.60;;;;;;5031073;28;20037;-79
2022/03/05 02:04:43;;;;;;;1.35;0.63;;;7.20;65.70;;;;;;5048849;28;20390;-78
2022/03/05 02:07:09;;;;;;;0.95;0.68;;;7.20;65.70;;;;;;5048491;28;20098;-80
2022/03/05 02:09:36;;;;;;;2.63;0.60;;;7.20;65.70;;;;;;5048092;28;20028;-79
2022/03/05 02:12:03;;;;;;;4.10;0.95;;;7.20;65.70;;;;;;5047852;28;20060;-78
2022/03/05 02:14:29;;;;;;;2.42;0.85;;;7.10;65.50;;;;;;5047797;28;20029;-77
2022/03/05 02:16:56;;;;;;;3.92;0.88;;;7.10;65.50;;;;;;5047620;28;20055;-78
2022/03/05 02:19:22;;;;;;;4.00;0.80;;;7.10;65.50;;;;;;5030122;28;20071;-78
2022/03/05 02:21:48;;;;;;;1.70;0.80;;;7.20;65.70;;;;;;5047996;28;20091;-78
2022/03/05 02:24:31;;;;;;;2.08;0.68;;;7.20;65.60;;;;;;5048105;28;20041;-79
2022/03/05 02:27:02;;;;;;;2.88;0.68;;;7.20;65.60;;;;;;5047441;28;20079;-78
2022/03/05 02:29:30;;;;;;;1.70;0.68;;;7.20;65.60;;;;;;5047730;28;20025;-78
2022/03/05 02:31:56;;;;;;;4.55;1.00;;;7.20;65.50;;;;;;5017500;28;20041;-77
2022/03/05 02:34:23;;;;;;;1.52;0.88;;;7.20;65.50;;;;;;5042815;28;20511;-78
2022/03/05 02:36:49;;;;;;;4.70;1.20;;;7.20;65.50;;;;;;5030072;28;20032;-77
2022/03/05 02:39:15;;;;;;;1.02;0.82;;;7.20;65.50;;;;;;5031671;28;20120;-78
2022/03/05 02:41:41;;;;;;;2.92;0.70;;;7.20;65.50;;;;;;5031068;28;20062;-78
2022/03/05 02:44:08;;;;;;;2.83;1.00;;;7.20;65.40;;;;;;5049038;28;20484;-79
2022/03/05 02:46:36;;;;;;;1.85;0.60;;;7.20;65.40;;;;;;5057883;22;20130;-77
2022/03/05 02:49:03;;;;;;;1.38;0.65;;;7.20;65.40;;;;;;5089911;28;20624;-75
2022/03/05 02:51:30;;;;;;;3.22;0.90;;;7.20;65.40;;;;;;5088898;28;20050;-77
2022/03/05 02:53:56;;;;;;;2.50;0.77;;;7.20;65.40;;;;;;5089236;28;20032;-77
2022/03/05 02:56:22;;;;;;;2.38;0.90;;;7.20;65.40;;;;;;5088992;28;20034;-77
2022/03/05 02:58:48;;;;;;;1.25;0.60;;;7.20;65.40;;;;;;5088814;28;20036;-77
2022/03/05 03:01:15;;;;;;;4.18;0.80;;;7.20;65.40;;;;;;5090370;28;20024;-77
2022/03/05 03:03:41;;;;;;;1.90;0.70;;;7.10;65.20;;;;;;5089772;28;20024;-77
2022/03/05 03:06:07;;;;;;;1.60;0.60;;;7.20;65.40;;;;;;5081065;28;20035;-77
2022/03/05 03:08:33;;;;;;;1.52;0.80;;;7.10;65.30;;;;;;5079770;28;20593;-77
2022/03/05 03:10:59;;;;;;;3.53;0.93;;;7.10;65.30;;;;;;5089602;28;20118;-77
2022/03/05 03:13:25;;;;;;;2.50;0.73;;;7.10;65.30;;;;;;5089286;28;20040;-78
2022/03/05 03:15:51;;;;;;;2.50;0.63;;;7.00;65.10;;;;;;5089256;28;20082;-77
2022/03/05 03:18:18;;;;;;;6.45;1.30;;;7.00;65.10;;;;;;5071311;28;20020;-77
2022/03/05 03:20:44;;;;;;;1.23;0.73;;;7.00;65.20;;;;;;5071472;28;20029;-77
2022/03/05 03:23:10;;;;;;;4.65;1.02;;;6.90;65.00;;;;;;5089600;28;20190;-78
2022/03/05 03:25:39;;;;;;;1.77;1.30;;;6.90;65.10;;;;;;5089006;28;20478;-77
2022/03/05 03:28:06;;;;;;;2.78;0.75;;;6.90;65.10;;;;;;5071672;28;20085;-77
2022/03/05 03:30:33;;;;;;;1.67;0.77;;;6.80;65.00;;;;;;5089693;28;20118;-78
2022/03/05 03:33:00;;;;;;;2.75;0.70;;;6.80;65.00;;;;;;5071382;28;20654;-77
2022/03/05 03:35:26;;;;;;;2.92;1.08;;;6.70;64.90;;;;;;5089387;28;20051;-78
2022/03/05 03:37:52;;;;;;;3.75;0.88;;;6.70;65.00;;;;;;5089357;28;20111;-77
2022/03/05 03:40:19;;;;;;;2.45;0.80;;;6.70;65.00;;;;;;5090034;28;20275;-77
2022/03/05 03:42:48;;;;;;;5.30;0.93;;;6.70;65.00;;;;;;5088182;28;20024;-78
2022/03/05 03:45:14;;;;;;;2.80;1.10;;;6.70;65.00;;;;;;5089007;28;20058;-78
2022/03/05 03:47:43;;;;;;;3.35;1.20;;;6.70;65.10;;;;;;5089187;28;20051;-77
2022/03/05 03:50:11;;;;;;;5.10;1.00;;;6.60;64.90;;;;;;5071612;28;20028;-77
2022/03/05 03:52:37;;;;;;;2.88;0.95;;;6.60;64.90;;;;;;5093428;28;20032;-78
2022/03/05 03:55:06;;;;;;;1.65;0.90;;;6.60;64.90;;;;;;5093444;28;20137;-77
2022/03/05 03:57:32;;;;;;;3.10;0.90;;;6.60;64.90;;;;;;5093159;28;20081;-78
2022/03/05 03:59:58;;;;;;;1.90;1.17;;;6.70;65.00;;;;;;5092686;28;20334;-78
2022/03/05 04:02:24;;;;;;;2.35;0.73;;;6.60;64.90;;;;;;5092179;28;20119;-78
2022/03/05 04:04:50;;;;;;;2.15;1.13;;;6.70;65.00;;;;;;5093449;28;20122;-77
2022/03/05 04:10:05;;;;;;;2.40;0.65;;;6.70;65.00;;;;;;5093675;28;20037;-78
2022/03/05 04:12:31;;;;;;;3.70;1.10;;;6.60;64.70;;;;;;5076819;28;20122;-78
2022/03/05 04:14:57;;;;;;;4.18;1.00;;;6.70;64.90;;;;;;5095739;28;20190;-78
2022/03/05 04:17:23;;;;;;;1.98;0.88;;;6.70;64.80;;;;;;5094248;28;20025;-77
2022/03/05 04:19:49;;;;;;;2.05;0.90;;;6.70;64.80;;;;;;5095173;28;20027;-78
2022/03/05 04:22:15;;;;;;;1.85;0.85;;;6.70;64.80;;;;;;5093118;28;20020;-78
2022/03/05 04:24:41;;;;;;;3.08;1.17;;;6.70;64.80;;;;;;5075339;28;20024;-77
2022/03/05 04:27:07;;;;;;;2.05;0.70;;;6.70;64.80;;;;;;5093651;28;20576;-78
2022/03/05 04:29:33;;;;;;;2.40;1.05;;;6.70;64.70;;;;;;5092674;28;20032;-77
2022/03/05 04:31:59;;;;;;;3.42;1.13;;;6.80;64.90;;;;;;5074997;28;20036;-77
2022/03/05 04:34:25;;;;;;;3.15;0.88;;;6.70;64.70;;;;;;5092967;28;20114;-77
2022/03/05 04:36:52;;;;;;;3.65;0.95;;;6.80;64.80;;;;;;5093228;28;20033;-77
2022/03/05 04:39:18;;;;;;;3.97;0.90;;;6.80;64.80;;;;;;5092980;28;20024;-77
2022/03/05 04:41:43;;;;;;;3.85;1.48;;;6.80;64.80;;;;;;5092059;28;20028;-77
2022/03/05 04:44:10;;;;;;;3.55;0.73;;;6.80;64.80;;;;;;5093077;28;20562;-77
2022/03/05 04:46:35;;;;;;;1.20;0.70;;;6.80;64.80;;;;;;5092593;28;20048;-77
2022/03/05 04:49:03;;;;;;;3.00;0.70;;;6.80;64.70;;;;;;5092478;28;20077;-77
2022/03/05 04:51:29;;;;;;;2.80;0.75;;;6.80;64.70;;;;;;5091356;28;20028;-77
2022/03/05 04:53:55;;;;;;;3.03;0.80;;;6.90;64.90;;;;;;5092224;28;20035;-77
2022/03/05 04:56:21;;;;;;;1.95;1.27;;;6.90;64.80;;;;;;5092541;28;20148;-77
2022/03/05 04:58:49;;;;;;;2.50;0.75;;;6.90;64.80;;;;;;5074864;28;20093;-77
2022/03/05 05:01:15;;;;;;;1.17;0.85;;;6.90;64.70;;;;;;5092112;28;20064;-78
2022/03/05 05:03:41;;;;;;;2.85;1.33;;;6.90;64.70;;;;;;5090731;28;20024;-78
2022/03/05 05:06:07;;;;;;;2.05;0.90;;;6.90;64.70;;;;;;5092145;28;20031;-77
2022/03/05 05:08:33;;;;;;;3.15;1.13;;;6.90;65.20;;;;;;5092134;28;20107;-78
2022/03/05 05:10:59;;;;;;;3.95;0.95;;;6.90;64.70;;;;;;5090741;28;20039;-78
2022/03/05 05:13:26;;;;;;;2.97;1.27;;;6.90;64.70;;;;;;5092446;28;20393;-77
2022/03/05 05:15:52;;;;;;;2.65;1.27;;;6.90;64.70;;;;;;5091028;28;20114;-77
2022/03/05 05:18:18;;;;;;;4.22;1.27;;;6.90;64.70;;;;;;5073907;28;20137;-78
2022/03/05 05:20:44;;;;;;;2.30;1.00;;;6.90;64.70;;;;;;5091817;28;20055;-77
2022/03/05 05:23:09;;;;;;;3.95;1.35;;;6.90;64.70;;;;;;5092092;28;20503;-77
2022/03/05 05:25:35;;;;;;;4.15;1.52;;;6.90;64.70;;;;;;5090095;28;20024;-77
2022/03/05 05:28:01;;;;;;;3.17;1.45;;;6.90;64.70;;;;;;5091752;28;20478;-77
2022/03/05 05:30:28;;;;;;;3.20;1.30;;;6.90;64.60;;;;;;5090503;28;20020;-77
2022/03/05 05:32:54;;;;;;;8.60;1.85;;;7.00;64.80;;;;;;5073735;28;20411;-77
2022/03/05 05:35:20;;;;;;;3.30;1.80;;;7.00;64.80;;;;;;5092104;28;20032;-78
2022/03/05 05:37:47;;;;;;;3.53;1.45;;;7.00;64.80;;;;;;5090087;28;20077;-77
2022/03/05 05:40:12;;;;;;;2.50;1.52;;;6.90;64.60;;;;;;5073554;28;20036;-78
2022/03/05 05:42:39;;;;;;;4.07;1.77;;;7.00;64.70;;;;;;5091459;28;20020;-77
2022/03/05 05:45:06;;;;;;;3.92;1.30;;;7.00;64.70;;;;;;5091801;28;20358;-79
2022/03/05 05:47:31;;;;;;;2.83;1.90;;;7.00;64.70;;;;;;5084368;28;20446;-77
2022/03/05 05:49:57;;;;;;;2.78;1.98;;;7.00;64.60;;;;;;5077054;28;20063;-77
2022/03/05 05:52:23;;;;;;;4.25;1.92;;;7.10;64.80;;;;;;5087659;28;20040;-77
2022/03/05 05:54:49;;;;;;;3.35;1.58;;;7.10;64.70;;;;;;5087846;28;20374;-77
2022/03/05 05:57:15;;;;;;;3.60;2.20;;;7.10;64.70;;;;;;5087295;28;20468;-77
2022/03/05 05:59:41;;;;;;;3.88;1.80;;;7.10;64.60;;;;;;5088848;28;20118;-78
2022/03/05 06:02:07;;;;;;;3.85;2.22;;;7.10;64.60;;;;;;5107698;28;20030;-77
2022/03/05 06:04:33;;;;;;;4.50;2.08;;;7.10;64.60;;;;;;5090307;28;20027;-78
2022/03/05 06:06:59;;;;;;;4.18;2.05;;;7.20;64.70;;;;;;5107717;28;20035;-77
2022/03/05 06:09:25;;;;;;;2.45;1.92;;;7.10;64.50;;;;;;5107879;28;20035;-77
2022/03/05 06:11:50;;;;;;;4.40;1.83;;;7.20;64.70;;;;;;5107840;28;20134;-77
2022/03/05 06:14:17;;;;;;;4.75;2.42;;;7.20;64.70;;;;;;5090264;28;20042;-77
2022/03/05 06:16:42;;;;;;;2.78;2.00;;;7.20;64.70;;;;;;5108430;28;20023;-77
2022/03/05 06:19:08;;;;;;;6.07;2.35;;;7.20;64.60;;;;;;5108014;28;20034;-78
2022/03/05 06:21:34;;;;;;;2.58;1.92;;;7.20;64.60;;;;;;5089790;28;20028;-77
2022/03/05 06:24:00;;;;;;;3.08;2.50;;;7.20;64.60;;;;;;5089559;28;20035;-77
2022/03/05 06:26:31;;;;;;;4.30;2.25;;;7.20;64.60;;;;;;5089491;28;20173;-77
2022/03/05 06:28:58;;;;;;;3.45;2.45;;;7.20;64.60;;;;;;5107567;28;20043;-77
2022/03/05 06:31:24;;;;;;;3.67;2.15;;;7.20;64.60;;;;;;5088935;28;20023;-77
2022/03/05 06:33:51;;;;;;;4.63;2.42;;;7.20;64.60;;;;;;5089990;28;20039;-76
2022/03/05 06:36:17;;;;;;;6.10;2.47;;;7.20;64.50;;;;;;5108261;28;20031;-76
2022/03/05 06:38:45;;;;;;;4.57;2.60;;;7.20;64.50;;;;;;5089542;28;20038;-77
2022/03/05 06:41:10;;;;;;;3.85;2.65;;;7.20;65.00;;;;;;5110224;28;20024;-76
2022/03/05 06:43:36;;;;;;;4.82;2.85;;;7.30;64.70;;;;;;5091991;28;20051;-76
2022/03/05 06:46:02;;;;;;;4.43;2.67;;;7.30;64.70;;;;;;5109167;28;20043;-77
2022/03/05 06:48:28;;;;;;;4.07;2.50;;;7.30;64.60;;;;;;5108301;28;20036;-76
2022/03/05 06:50:54;;;;;;;4.80;2.92;;;7.30;64.60;;;;;;5089761;28;20616;-85
2022/03/05 06:53:20;;;;;;;3.83;3.20;;;7.30;64.60;;;;;;5089865;28;20039;-79
2022/03/05 06:55:46;;;;;;;3.92;3.20;;;7.30;64.50;;;;;;5109201;28;20110;-92
2022/03/05 06:58:14;;;;;;;4.53;3.60;;;7.40;64.70;;;;;;5090286;28;20055;-85
2022/03/05 07:00:40;;;;;;;5.55;3.85;;;7.40;64.60;;;;;;5068515;28;20012;-85
2022/03/05 07:03:06;;;;;;;3.60;3.03;;;7.40;64.60;;;;;;5063981;28;20043;-82
2022/03/05 07:05:32;;;;;;;4.18;3.10;;;7.40;64.60;;;;;;5065973;28;20189;-84
2022/03/05 07:07:58;;;;;;;4.38;3.13;;;7.40;64.50;;;;;;5067356;28;20032;-82
2022/03/05 07:10:24;;;;;;;4.35;3.13;;;7.40;64.50;;;;;;5068042;28;20066;-82
2022/03/05 07:12:50;;;;;;;4.80;4.10;;;7.40;64.40;;;;;;5066657;28;20044;-82
2022/03/05 07:15:17;;;;;;;4.30;3.65;;;7.40;64.40;;;;;;5084709;28;20024;-82
2022/03/05 07:17:53;;;;;;;3.92;3.47;;;7.50;64.60;;;;;;5084048;28;20081;-80
2022/03/05 07:20:20;;;;;;;4.50;3.90;;;7.40;64.40;;;;;;5067768;28;20032;-82
2022/03/05 07:22:46;;;;;;;4.55;3.42;;;7.50;64.50;;;;;;5066880;28;20097;-88
2022/03/05 07:25:13;;;;;;;3.92;3.60;;;7.40;64.40;;;;;;5068135;28;20059;-82
2022/03/05 07:27:39;;;;;;;4.22;3.05;;;7.50;64.60;;;;;;5093357;28;20032;-82
2022/03/05 07:30:08;;;;;;;6.50;4.03;;;7.50;65.10;;;;;;5093393;28;20386;-81
2022/03/05 07:32:34;;;;;;;5.28;3.70;;;7.50;64.50;;;;;;5066081;28;20398;-78
2022/03/05 07:34:59;;;;;;;5.32;3.83;;;7.50;64.50;;;;;;5090426;28;20028;-80
2022/03/05 07:37:25;;;;;;;4.75;3.60;;;7.40;64.30;;;;;;5089523;28;20024;-79
2022/03/05 07:39:51;;;;;;;4.50;3.80;;;7.50;64.50;;;;;;5090616;28;20120;-78
2022/03/05 07:42:17;;;;;;;5.05;3.90;;;7.50;64.40;;;;;;5090736;28;20044;-76
2022/03/05 07:44:43;;;;;;;5.40;3.97;;;7.60;64.60;;;;;;5090375;28;20039;-75
2022/03/05 07:47:09;;;;;;;4.45;3.97;;;7.50;64.40;;;;;;5090219;28;20444;-76
2022/03/05 07:49:35;;;;;;;5.03;3.95;;;7.60;64.50;;;;;;5108860;28;20027;-76
2022/03/05 07:52:01;;;;;;;4.78;3.67;;;7.60;64.40;;;;;;5110912;28;20126;-76
2022/03/05 07:54:28;;;;;;;5.70;3.58;;;7.70;64.50;;;;;;5106828;28;20390;-77
2022/03/05 07:56:55;;;;;;;6.13;4.03;;;7.70;64.40;;;;;;5090565;28;20028;-76
2022/03/05 07:59:21;;;;;;;6.32;4.30;;;7.70;64.30;;;;;;5051734;28;20115;-77
2022/03/05 08:01:46;;;;;;;4.82;4.22;;;7.80;64.40;;;;;;5052405;28;20170;-78
2022/03/05 08:04:12;;;;;;;4.60;3.38;;;7.80;64.30;;;;;;5052039;28;20501;-78
2022/03/05 08:06:38;;;;;;;7.90;3.88;;;7.90;64.40;;;;;;5069432;28;20039;-77
2022/03/05 08:09:04;;;;;;;4.45;4.05;;;7.90;64.30;;;;;;5083885;28;20035;-78
2022/03/05 08:11:30;;;;;;;3.88;3.42;;;7.90;64.20;;;;;;5090557;28;20055;-82
2022/03/05 08:13:56;;;;;;;5.28;3.45;;;8.00;64.30;;;;;;5072128;28;20044;-80
2022/03/05 08:16:22;;;;;;;5.05;3.53;;;8.10;64.40;;;;;;5072325;28;20028;-77
2022/03/05 08:18:48;;;;;;;3.97;3.42;;;8.20;64.40;;;;;;5089624;28;20036;-77
2022/03/05 08:21:14;;;;;;;5.25;3.20;;;8.20;64.30;;;;;;5072741;28;20024;-78
2022/03/05 08:23:40;;;;;;;3.70;3.40;;;8.20;64.20;;;;;;5090280;28;20071;-78
2022/03/05 08:26:10;;;;;;;3.53;3.20;;;8.30;64.30;;;;;;5071538;28;20066;-78
2022/03/05 08:28:37;;;;;;;4.03;3.35;;;8.30;64.20;;;;;;5055713;28;20025;-77
2022/03/05 08:31:03;;;;;;;3.38;3.08;;;8.40;64.30;;;;;;5071628;28;20069;-75
2022/03/05 08:33:30;;;;;;;5.93;3.78;;;8.50;64.20;;;;;;5090636;28;20394;-79
2022/03/05 08:35:56;;;;;;;4.60;3.13;;;8.60;64.30;;;;;;5090146;28;20024;-84
2022/03/05 08:38:22;;;;;;;4.10;2.90;;;8.70;64.20;;;;;;5090405;28;20443;-78
2022/03/05 08:40:48;;;;;;;2.92;2.63;;;8.70;64.10;;;;;;5090590;28;20050;-83
2022/03/05 08:43:13;;;;;;;3.75;2.72;;;8.80;64.20;;;;;;5055396;28;20024;-79
2022/03/05 08:45:39;;;;;;;3.20;2.90;;;8.80;64.10;;;;;;5090068;28;20060;-77
2022/03/05 08:48:06;;;;;;;6.60;2.75;;;8.90;64.20;;;;;;5071247;28;20475;-82
2022/03/05 08:50:35;;;;;;;3.50;2.70;;;8.90;64.10;;;;;;5055356;28;20024;-77
2022/03/05 08:53:02;;;;;;;4.65;2.65;;;9.00;64.10;;;;;;5089117;28;20063;-79
2022/03/05 08:55:28;;;;;;;3.05;2.40;;;9.00;64.00;;;;;;5089581;28;20035;-74
2022/03/05 08:57:54;;;;;;;3.08;2.35;;;9.10;64.10;;;;;;5036645;28;20024;-76
2022/03/05 09:00:20;;;;;;;2.55;2.30;;;9.20;64.10;;;;;;5067953;28;20057;-75
2022/03/05 09:02:46;;;;;;;3.58;2.65;;;9.30;64.10;;;;;;5081883;28;20446;-74
2022/03/05 09:05:14;;;;;;;3.65;2.55;;;9.40;64.10;;;;;;5068912;28;20283;-74
2022/03/05 09:07:41;;;;;;;2.13;1.90;;;9.50;64.10;;;;;;5070323;28;20239;-74
2022/03/05 09:10:08;;;;;;;2.53;2.17;;;9.50;63.90;;;;;;5071091;28;20093;-74
2022/03/05 09:12:34;;;;;;;2.60;2.10;;;9.50;63.70;;;;;;5071850;28;20089;-77
2022/03/05 09:15:00;;;;;;;5.35;2.38;;;9.60;63.80;;;;;;5071649;28;20025;-75
2022/03/05 09:17:26;;;;;;;2.65;2.17;;;9.60;63.70;;;;;;5083793;28;20135;-74
2022/03/05 09:19:53;;;;;;;2.53;2.03;;;9.70;63.70;;;;;;5089263;28;20025;-74
2022/03/05 09:22:20;;;;;;;2.33;2.00;;;9.80;63.80;;;;;;5089177;28;20032;-74
2022/03/05 09:24:46;;;;;;;2.45;2.00;;;9.80;63.70;;;;;;5054451;28;20150;-74
2022/03/05 09:27:12;;;;;;;3.17;2.20;;;9.90;63.70;;;;;;5088955;28;20043;-74
2022/03/05 09:29:38;;;;;;;2.58;2.13;;;10.00;63.80;;;;;;5070127;28;20020;-74
2022/03/05 09:32:05;;;;;;;3.50;2.33;;;10.10;63.80;;;;;;5088860;28;20395;-75
2022/03/05 09:34:31;;;;;;;4.95;2.17;;;10.10;63.60;;;;;;5088723;28;20490;-74
2022/03/05 09:36:56;;;;;;;3.03;1.92;;;10.20;63.60;;;;;;5089193;28;20031;-75
2022/03/05 09:39:22;;;;;;;2.85;1.90;;;10.30;63.60;;;;;;5070232;28;20039;-75
2022/03/05 09:41:49;;;;;;;2.30;1.77;;;10.40;63.60;;;;;;5088634;28;20113;-78
2022/03/05 09:44:15;;;;;;;2.53;1.60;;;10.50;63.60;;;;;;5088485;28;20016;-78
2022/03/05 09:46:42;;;;;;;2.80;2.20;;;10.60;63.60;;;;;;5069371;28;20117;-74
2022/03/05 09:49:10;;;;;;;2.38;1.70;;;10.60;63.30;;;;;;5087431;28;20039;-74
2022/03/05 09:51:36;;;;;;;2.22;1.95;;;10.80;63.50;;;;;;5088248;28;20111;-74
2022/03/05 09:54:03;;;;;;;1.67;1.40;;;10.90;63.40;;;;;;5088014;28;20115;-74
2022/03/05 09:56:29;;;;;;;4.25;1.70;;;11.10;63.40;;;;;;5087837;28;20039;-74
2022/03/05 09:58:55;;;;;;;2.13;1.48;;;11.20;63.30;;;;;;5088009;28;20034;-74
2022/03/05 10:01:21;;;;;;;2.67;1.60;;;11.30;63.20;;;;;;5070052;28;20501;-74
2022/03/05 10:03:48;;;;;;;2.22;1.67;;;11.40;63.10;;;;;;5069570;28;20043;-74
2022/03/05 10:06:18;;;;;;;2.85;1.83;;;11.50;63.00;;;;;;5088032;28;20032;-73
2022/03/05 10:08:45;;;;;;;4.22;1.88;;;11.60;63.00;;;;;;5069405;28;20024;-74
2022/03/05 10:11:12;;;;;;;2.20;1.50;;;11.60;62.90;;;;;;5088470;28;20050;-74
2022/03/05 10:13:40;;;;;;;2.97;1.60;;;11.70;63.00;;;;;;5088007;28;20035;-74
2022/03/05 10:16:28;;;;;;;5.05;1.55;;;11.70;62.80;;;;;;5087906;28;20073;-74
2022/03/05 10:18:54;;;;;;;2.85;1.45;;;11.70;62.80;;;;;;5087286;28;20044;-74
2022/03/05 10:21:31;;;;;;;2.10;1.30;;;11.70;62.80;;;;;;5087753;28;20338;-74
2022/03/05 10:24:09;;;;;;;2.55;1.40;;;11.70;62.70;;;;;;5087684;28;20111;-74
2022/03/05 10:26:52;;;;;;;2.15;1.45;;;11.80;62.80;;;;;;5069553;28;20032;-76
2022/03/05 10:29:26;;;;;;;1.45;1.20;;;11.80;62.70;;;;;;5087696;28;20032;-76
2022/03/05 10:31:59;;;;;;;2.95;2.38;;;11.80;62.70;;;;;;5087644;28;20345;-76
2022/03/05 10:34:26;;;;;;;2.05;1.30;;;11.90;62.80;;;;;;5069420;28;20226;-74
2022/03/05 10:37:00;;;;;;;1.60;1.00;;;12.00;62.80;;;;;;5069557;28;20175;-74
2022/03/05 10:39:27;;;;;;;3.15;1.20;;;12.10;62.60;;;;;;5088001;28;20505;-74
2022/03/05 10:41:57;;;;;;;2.55;1.30;;;12.20;62.60;;;;;;5086848;28;20032;-74
2022/03/05 10:44:23;;;;;;;2.50;1.42;;;12.30;62.60;;;;;;5087196;28;20435;-74
2022/03/05 10:47:01;;;;;;;2.63;1.30;;;12.40;62.40;;;;;;5086904;28;20055;-76
2022/03/05 10:49:33;;;;;;;2.13;0.93;;;12.60;62.40;;;;;;5069181;28;20542;-74
2022/03/05 10:52:02;;;;;;;3.25;1.23;;;12.70;62.30;;;;;;5068269;28;20031;-74
2022/03/05 10:54:29;;;;;;;2.72;1.35;;;12.70;62.20;;;;;;5087384;28;20080;-74
2022/03/05 10:56:56;;;;;;;1.88;1.08;;;12.80;62.20;;;;;;5087070;28;20505;-74
2022/03/05 10:59:22;;;;;;;2.40;1.27;;;12.80;62.00;;;;;;5069169;28;20020;-74
2022/03/05 11:01:49;;;;;;;2.10;1.35;;;12.90;62.10;;;;;;5068396;28;20031;-75
2022/03/05 11:04:15;;;;;;;2.45;1.00;;;12.90;62.00;;;;;;5068888;28;20108;-75
2022/03/05 11:06:43;;;;;;;2.75;1.10;;;13.00;62.00;;;;;;5052542;28;20070;-75
2022/03/05 11:09:11;;;;;;;3.00;1.13;;;13.00;61.70;;;;;;5086974;28;20020;-76
2022/03/05 11:11:39;;;;;;;1.70;1.15;;;13.10;61.70;;;;;;5052391;28;20021;-77
2022/03/05 11:14:06;;;;;;;1.38;1.08;;;13.20;61.60;;;;;;5087132;28;20052;-76
2022/03/05 11:16:33;;;;;;;1.58;1.17;;;13.30;61.50;;;;;;5087461;28;20028;-75
2022/03/05 11:18:59;;;;;;;3.10;1.33;;;13.40;61.50;;;;;;5086259;28;20032;-74
2022/03/05 11:21:28;;;;;;;2.28;1.40;;;13.50;61.40;;;;;;5068911;28;20387;-74
2022/03/05 11:23:55;;;;;;;18.42;2.63;;;13.60;61.40;;;;;;5068966;28;20028;-73
2022/03/05 11:26:21;;;;;;;2.80;1.50;;;13.70;61.40;;;;;;5087441;28;20031;-75
2022/03/05 11:28:49;;;;;;;2.58;1.40;;;13.70;61.30;;;;;;5081570;28;20032;-74
2022/03/05 11:31:20;;;;;;;1.95;1.17;;;13.80;61.40;;;;;;5066595;28;20036;-74
2022/03/05 11:33:48;;;;;;;1.90;1.25;;;13.80;61.20;;;;;;5084524;28;20036;-74
2022/03/05 11:36:38;;;;;;;2.65;1.40;;;13.90;61.20;;;;;;5069050;28;20127;-74
2022/03/05 11:39:08;;;;;;;2.03;1.10;;;13.90;60.90;;;;;;5069038;28;20032;-75
2022/03/05 11:42:09;;;;;;;1.95;1.30;;;14.10;61.20;;;;;;5069157;28;20055;-74
2022/03/05 11:44:43;;;;;;;1.20;0.98;;;14.20;60.90;;;;;;5053281;28;20044;-79
2022/03/05 11:47:20;;;;;;;2.33;1.30;;;14.30;61.00;;;;;;5068212;28;20079;-75
2022/03/05 11:50:07;;;;;;;2.15;1.35;;;14.30;60.90;;;;;;5087236;28;20122;-74
2022/03/05 11:52:39;;;;;;;2.53;1.42;;;14.40;60.80;;;;;;5067995;28;20032;-75
2022/03/05 11:55:14;;;;;;;1.90;1.05;;;14.40;60.80;;;;;;5086446;28;20081;-75
2022/03/05 11:57:53;;;;;;;1.52;1.27;;;14.50;60.80;;;;;;5086716;28;20261;-75
2022/03/05 12:00:33;;;;;;;1.40;1.10;;;14.60;60.70;;;;;;5083168;28;20059;-74
2022/03/05 12:03:00;;;;;;;3.17;1.38;;;14.70;60.70;;;;;;5078553;28;20451;-74
2022/03/05 12:05:36;;;;;;;1.13;0.90;;;14.70;60.60;;;;;;5086680;28;20044;-74
2022/03/05 12:08:07;;;;;;;1.85;1.10;;;14.90;60.60;;;;;;5087010;28;20825;-74
2022/03/05 12:10:38;;;;;;;1.60;1.00;;;14.90;60.50;;;;;;5069289;28;20031;-75
2022/03/05 12:13:15;;;;;;;2.38;1.20;;;14.90;60.30;;;;;;5091700;28;20125;-74
2022/03/05 12:15:43;;;;;;;4.13;1.40;;;14.90;60.30;;;;;;5092696;28;20032;-75
2022/03/05 12:18:16;;;;;;;2.58;1.02;;;14.90;60.40;;;;;;5092524;28;20047;-77
2022/03/05 12:20:46;;;;;;;5.13;1.55;;;14.90;60.30;;;;;;5092542;28;20030;-75
2022/03/05 12:23:17;;;;;;;3.80;1.23;;;14.90;60.30;;;;;;5083781;28;20042;-74
2022/03/05 12:25:45;;;;;;;1.58;1.20;;;14.90;60.20;;;;;;5071794;28;20064;-74
2022/03/05 12:28:16;;;;;;;2.35;1.20;;;15.00;60.20;;;;;;5078465;28;20568;-74
2022/03/05 12:30:43;;;;;;;1.95;1.02;;;15.10;60.20;;;;;;5073692;28;20028;-74
2022/03/05 12:33:14;;;;;;;2.10;1.23;;;15.20;60.00;;;;;;5063671;28;20549;-74
2022/03/05 12:35:42;;;;;;;1.02;0.88;;;15.30;59.90;;;;;;5069993;28;20024;-74
2022/03/05 12:38:09;;;;;;;2.42;1.27;;;15.40;59.90;;;;;;5057486;28;20028;-74
2022/03/05 12:40:36;;;;;;;2.53;1.27;;;15.40;59.70;;;;;;5072404;28;20028;-76
2022/03/05 12:43:05;;;;;;;3.70;1.98;;;15.40;59.70;;;;;;5089690;28;20409;-76
2022/03/05 12:45:33;;;;;;;2.38;1.52;;;15.40;59.90;;;;;;5090520;28;20021;-79
2022/03/05 12:48:07;;;;;;;2.72;1.10;;;15.40;59.60;;;;;;5051326;28;20049;-79
2022/03/05 12:50:42;;;;;;;1.63;1.00;;;15.40;59.70;;;;;;5069667;28;20021;-77
2022/03/05 12:53:16;;;;;;;1.42;1.10;;;15.40;59.70;;;;;;5076562;28;20035;-77
2022/03/05 12:55:56;;;;;;;1.95;0.95;;;15.40;59.70;;;;;;5060678;28;20024;-77
2022/03/05 12:58:29;;;;;;;1.85;0.80;;;15.40;59.60;;;;;;5066940;28;20038;-82